createdAt,value
2023-03-19T00:00:46.858Z,14.90
2023-03-19T00:05:53.897Z,16.90
2023-03-19T00:10:58.969Z,14.75
2023-03-19T00:16:01.986Z,12.80
2023-03-19T00:21:04.837Z,12.25
2023-03-19T00:26:08.897Z,9.75
2023-03-19T00:31:13.448Z,7.95
2023-03-19T00:36:17.304Z,8.30
2023-03-19T00:41:21.618Z,6.57
2023-03-19T00:46:25.067Z,5.00
2023-03-19T00:51:27.724Z,4.35
2023-03-19T00:56:31.657Z,3.03
2023-03-19T01:01:34.735Z,3.17
2023-03-19T01:06:37.413Z,3.10
2023-03-19T01:11:41.417Z,3.23
2023-03-19T01:16:44.004Z,2.70
2023-03-19T01:21:46.891Z,2.70
2023-03-19T01:26:50.774Z,2.70
2023-03-19T01:31:53.330Z,2.45
2023-03-19T01:36:56.100Z,2.40
2023-03-19T01:42:03.674Z,2.47
2023-03-19T01:47:11.669Z,3.17
2023-03-19T01:52:16.652Z,2.80
2023-03-19T01:57:21.514Z,3.05
2023-03-19T02:02:29.181Z,2.92
2023-03-19T02:07:34.700Z,2.58
2023-03-19T02:12:39.044Z,3.50
2023-03-19T02:17:42.650Z,3.03
2023-03-19T02:22:52.914Z,3.75
2023-03-19T02:27:56.992Z,3.97
2023-03-19T02:32:59.722Z,3.60
2023-03-19T02:38:06.512Z,3.57
2023-03-19T02:43:10.438Z,3.95
2023-03-19T02:48:12.990Z,3.92
2023-03-19T02:53:15.956Z,4.50
2023-03-19T02:58:19.926Z,4.25
2023-03-19T03:03:22.489Z,4.72
2023-03-19T03:08:25.115Z,4.60
2023-03-19T03:13:29.178Z,4.77
2023-03-19T03:18:31.726Z,4.35
2023-03-19T03:23:34.272Z,4.83
2023-03-19T03:28:38.167Z,5.13
2023-03-19T03:33:41.028Z,4.97
2023-03-19T03:38:44.568Z,4.95
2023-03-19T03:43:48.536Z,5.32
2023-03-19T03:48:51.523Z,5.30
2023-03-19T03:53:54.221Z,5.07
2023-03-19T03:58:58.108Z,5.07
2023-03-19T04:04:00.751Z,5.07
2023-03-19T04:09:03.655Z,5.13
2023-03-19T04:14:08.274Z,5.35
2023-03-19T04:19:10.875Z,5.13
2023-03-19T04:24:14.255Z,6.13
2023-03-19T04:34:22.508Z,5.53
2023-03-19T04:39:25.803Z,6.57
2023-03-19T04:44:29.842Z,6.85
2023-03-19T04:49:32.442Z,8.57
2023-03-19T04:54:35.063Z,7.70
2023-03-19T04:59:38.977Z,9.07
2023-03-19T05:04:41.696Z,9.38
2023-03-19T05:09:46.282Z,10.23
2023-03-19T05:14:50.230Z,10.00
2023-03-19T05:19:53.462Z,11.80
2023-03-19T05:24:56.185Z,11.60
2023-03-19T05:30:00.278Z,13.30
2023-03-19T05:35:02.870Z,13.10
2023-03-19T05:40:06.236Z,13.53
2023-03-19T05:45:11.173Z,13.18
2023-03-19T05:50:13.865Z,14.55
2023-03-19T05:55:17.425Z,15.87
2023-03-19T06:10:27.261Z,18.00
2023-03-19T06:15:31.448Z,18.63
2023-03-19T06:20:34.274Z,17.70
2023-03-19T06:25:37.288Z,17.83
2023-03-19T06:30:41.210Z,19.65
2023-03-19T06:35:43.806Z,21.50
2023-03-19T06:40:46.378Z,23.10
2023-03-19T06:45:50.661Z,24.17
2023-03-19T06:50:53.307Z,14.10
2023-03-19T06:55:56.062Z,9.47
2023-03-19T07:01:00.059Z,9.15
2023-03-19T07:06:02.659Z,9.95
2023-03-19T07:11:06.505Z,12.20
2023-03-19T07:16:10.419Z,11.70
2023-03-19T07:21:12.969Z,11.88
2023-03-19T07:26:15.518Z,12.40
2023-03-19T07:31:19.691Z,12.87
2023-03-19T07:36:22.680Z,12.88
2023-03-19T07:41:25.760Z,11.63
2023-03-19T07:46:29.702Z,11.43
2023-03-19T07:51:32.281Z,12.05
2023-03-19T07:56:34.932Z,11.03
2023-03-19T08:01:38.865Z,12.03
2023-03-19T08:06:42.096Z,10.95
2023-03-19T08:11:45.646Z,10.40
2023-03-19T08:16:49.710Z,9.45
2023-03-19T08:21:52.510Z,10.90
2023-03-19T08:26:55.112Z,11.25
2023-03-19T08:32:00.886Z,9.47
2023-03-19T08:37:03.512Z,10.38
2023-03-19T08:42:06.420Z,9.50
2023-03-19T08:47:11.363Z,8.57
2023-03-19T08:52:14.139Z,8.85
2023-03-19T08:57:16.779Z,7.53
2023-03-19T09:02:20.796Z,7.73
2023-03-19T09:07:23.564Z,8.02
2023-03-19T09:12:26.485Z,7.68
2023-03-19T09:17:30.505Z,7.28
2023-03-19T09:22:33.066Z,6.20
2023-03-19T09:27:36.040Z,6.47
2023-03-19T09:32:39.986Z,6.28
2023-03-19T09:37:42.584Z,6.18
2023-03-19T09:42:54.628Z,6.13
2023-03-19T09:48:04.280Z,5.90
2023-03-19T09:53:13.451Z,6.03
2023-03-19T09:58:19.217Z,5.18
2023-03-19T10:03:40.501Z,4.85
2023-03-19T10:08:57.544Z,5.43
2023-03-19T10:14:14.502Z,5.45
2023-03-19T10:19:22.588Z,4.70
2023-03-19T10:24:31.336Z,4.70
2023-03-19T10:29:35.647Z,4.13
2023-03-19T10:34:43.249Z,4.07
2023-03-19T10:39:47.410Z,4.07
2023-03-19T10:44:52.427Z,3.80
2023-03-19T10:49:57.334Z,3.95
2023-03-19T10:55:06.014Z,3.38
2023-03-19T11:00:17.904Z,3.60
2023-03-19T11:05:26.929Z,3.25
2023-03-19T11:10:33.357Z,3.65
2023-03-19T11:15:38.350Z,3.25
2023-03-19T11:20:42.361Z,3.40
2023-03-19T11:25:51.168Z,3.33
2023-03-19T11:31:03.593Z,3.10
2023-03-19T11:36:14.021Z,3.28
2023-03-19T11:41:27.266Z,3.22
2023-03-19T11:46:40.095Z,3.33
2023-03-19T11:51:50.826Z,3.05
2023-03-19T11:56:59.799Z,3.50
2023-03-19T12:02:33.643Z,2.90
2023-03-19T12:12:58.582Z,2.50
2023-03-19T12:18:17.801Z,3.40
2023-03-19T12:23:36.016Z,3.00
2023-03-19T12:28:48.525Z,2.88
2023-03-19T12:34:02.574Z,3.20
2023-03-19T12:39:12.105Z,3.38
2023-03-19T12:44:21.782Z,3.72
2023-03-19T12:49:30.355Z,3.42
2023-03-19T12:54:39.317Z,3.65
2023-03-19T12:59:47.497Z,4.28
2023-03-19T13:04:55.888Z,4.03
2023-03-19T13:10:05.522Z,3.35
2023-03-19T13:15:14.160Z,4.35
2023-03-19T13:20:21.478Z,3.75
2023-03-19T13:25:31.628Z,3.50
2023-03-19T13:30:34.661Z,4.10
2023-03-19T13:35:41.560Z,4.53
2023-03-19T13:40:48.726Z,4.82
2023-03-19T13:45:54.028Z,4.15
2023-03-19T13:51:00.914Z,5.63
2023-03-19T13:56:15.926Z,6.45
2023-03-19T14:01:40.719Z,6.72
2023-03-19T14:06:45.365Z,7.22
2023-03-19T14:11:49.409Z,9.23
2023-03-19T14:16:54.290Z,7.95
2023-03-19T14:22:10.660Z,7.72
2023-03-19T14:27:19.254Z,8.25
2023-03-19T14:32:29.606Z,9.77
2023-03-19T14:37:42.827Z,12.25
2023-03-19T14:42:58.993Z,12.65
2023-03-19T14:48:27.197Z,13.25
2023-03-19T14:53:38.929Z,13.27
2023-03-19T14:58:50.602Z,10.88
2023-03-19T15:03:57.179Z,10.38
2023-03-19T15:09:01.241Z,7.93
2023-03-19T15:14:25.155Z,4.45
2023-03-19T15:19:31.458Z,4.95
2023-03-19T15:24:36.066Z,4.38
2023-03-19T15:29:40.133Z,4.38
2023-03-19T15:34:45.148Z,6.00
2023-03-19T15:39:51.668Z,5.82
2023-03-19T15:44:59.431Z,6.40
2023-03-19T15:50:07.795Z,6.10
2023-03-19T15:55:13.788Z,7.30
2023-03-19T16:00:19.406Z,8.32
2023-03-19T16:05:27.334Z,5.90
2023-03-19T16:10:39.114Z,4.97
2023-03-19T16:15:45.764Z,5.38
2023-03-19T16:21:02.607Z,7.22
2023-03-19T16:26:17.942Z,7.95
2023-03-19T16:31:28.789Z,8.30
2023-03-19T16:36:33.418Z,9.77
2023-03-19T16:41:37.109Z,8.77
2023-03-19T16:46:41.621Z,10.18
2023-03-19T16:51:44.248Z,12.05
2023-03-19T16:56:46.850Z,12.23
2023-03-19T17:01:50.876Z,11.37
2023-03-19T17:06:53.432Z,12.88
2023-03-19T17:11:56.732Z,11.57
2023-03-19T17:17:01.098Z,10.32
2023-03-19T17:22:04.220Z,13.13
2023-03-19T17:27:07.132Z,11.93
2023-03-19T17:32:19.005Z,10.07
2023-03-19T17:37:21.761Z,11.73
2023-03-19T17:42:26.282Z,11.83
2023-03-19T17:47:30.338Z,12.68
2023-03-19T17:52:34.667Z,12.25
2023-03-19T17:57:37.272Z,12.68
2023-03-19T18:02:41.589Z,12.37
2023-03-19T18:07:44.711Z,15.77
2023-03-19T18:12:47.572Z,15.43
2023-03-19T18:17:54.214Z,13.93
2023-03-19T18:22:56.836Z,13.57
2023-03-19T18:27:59.408Z,13.23
2023-03-19T18:33:06.534Z,17.63
2023-03-19T18:38:15.912Z,17.67
2023-03-19T18:43:19.490Z,17.25
2023-03-19T18:48:27.271Z,16.95
2023-03-19T18:53:30.199Z,17.48
2023-03-19T18:58:33.103Z,18.00
2023-03-19T19:03:38.315Z,20.70
2023-03-19T19:08:40.908Z,19.40
2023-03-19T19:13:55.684Z,21.73
2023-03-19T19:19:00.501Z,21.42
2023-03-19T19:24:03.198Z,23.80
2023-03-19T19:29:06.355Z,26.37
2023-03-19T19:34:13.948Z,26.98
2023-03-19T19:39:16.934Z,26.67
2023-03-19T19:44:20.982Z,28.98
2023-03-19T19:49:25.298Z,30.42
2023-03-19T19:54:27.904Z,27.17
2023-03-19T19:59:30.737Z,26.27
2023-03-19T20:04:34.778Z,28.05
2023-03-19T20:09:37.313Z,28.67
2023-03-19T20:14:40.027Z,32.57
2023-03-19T20:19:44.252Z,28.87
2023-03-19T20:24:50.390Z,29.85
2023-03-19T20:29:54.253Z,30.60
2023-03-19T20:34:59.375Z,26.88
2023-03-19T20:40:01.950Z,26.83
2023-03-19T20:45:05.966Z,26.40
2023-03-19T20:50:17.795Z,26.95
2023-03-19T20:55:22.463Z,24.27
2023-03-19T21:00:27.714Z,22.30
2023-03-19T21:05:36.459Z,21.10
2023-03-19T21:10:40.951Z,22.40
2023-03-19T21:15:44.035Z,21.27
2023-03-19T21:20:50.939Z,20.15
2023-03-19T21:25:54.067Z,20.42
2023-03-19T21:30:57.526Z,20.35
2023-03-19T21:41:07.285Z,24.35
2023-03-19T21:46:23.591Z,23.52
2023-03-19T21:51:29.669Z,23.70
2023-03-19T21:56:41.641Z,22.15
2023-03-19T22:01:45.340Z,23.80
2023-03-19T22:06:49.330Z,22.63
2023-03-19T22:11:52.337Z,22.80
2023-03-19T22:16:56.625Z,22.10
2023-03-19T22:22:01.821Z,22.92
2023-03-19T22:27:04.634Z,22.83
2023-03-19T22:32:07.928Z,22.05
2023-03-19T22:42:27.585Z,23.33
2023-03-19T22:47:32.406Z,24.35
2023-03-19T22:52:37.313Z,23.73
2023-03-19T22:57:39.897Z,25.60
2023-03-19T23:02:42.811Z,26.07
2023-03-19T23:07:46.733Z,27.27
2023-03-19T23:12:49.489Z,24.17
2023-03-19T23:17:55.490Z,22.87
2023-03-19T23:22:59.712Z,25.27
2023-03-19T23:28:03.625Z,23.35
2023-03-19T23:33:06.252Z,23.88
2023-03-19T23:38:10.540Z,25.87
2023-03-19T23:43:20.049Z,25.88
2023-03-19T23:48:26.723Z,27.50
2023-03-19T23:53:31.313Z,28.00
2023-03-19T23:58:40.027Z,28.08
